createdAt,value
2019-05-15T00:01:08.846Z,92.97
2019-05-15T00:03:40.365Z,93.00
2019-05-15T00:06:11.558Z,93.57
2019-05-15T00:08:42.938Z,94.18
2019-05-15T00:11:14.628Z,94.29
2019-05-15T00:13:48.372Z,94.13
2019-05-15T00:16:19.423Z,93.72
2019-05-15T00:18:51.174Z,93.74
2019-05-15T00:21:23.031Z,93.47
2019-05-15T00:23:54.385Z,93.35
2019-05-15T00:26:25.771Z,92.68
2019-05-15T00:29:09.478Z,92.12
2019-05-15T00:31:30.233Z,91.84
2019-05-15T00:34:01.500Z,92.36
2019-05-15T00:36:34.726Z,92.32
2019-05-15T00:39:08.447Z,92.65
2019-05-15T00:41:50.327Z,92.51
2019-05-15T00:44:13.280Z,92.32
2019-05-15T00:46:44.921Z,92.50
2019-05-15T00:49:14.096Z,92.94
2019-05-15T00:51:48.476Z,92.84
2019-05-15T00:54:19.732Z,93.27
2019-05-15T00:56:51.446Z,93.37
2019-05-15T00:59:26.719Z,93.35
2019-05-15T01:01:56.165Z,92.83
2019-05-15T01:04:28.813Z,93.13
2019-05-15T01:07:00.349Z,93.02
2019-05-15T01:09:33.372Z,92.94
2019-05-15T01:12:05.174Z,93.06
2019-05-15T01:14:38.534Z,92.56
2019-05-15T01:17:10.209Z,92.50
2019-05-15T01:19:42.004Z,92.99
2019-05-15T01:22:13.849Z,92.99
2019-05-15T01:24:45.605Z,92.84
2019-05-15T01:27:18.416Z,92.72
2019-05-15T01:29:50.145Z,92.50
2019-05-15T01:32:21.853Z,92.49
2019-05-15T01:34:53.419Z,91.79
2019-05-15T01:37:25.170Z,91.36
2019-05-15T01:39:58.150Z,92.03
2019-05-15T01:42:29.971Z,91.71
2019-05-15T01:45:01.596Z,91.83
2019-05-15T01:47:33.155Z,91.66
2019-05-15T01:50:04.462Z,91.93
2019-05-15T01:52:38.677Z,91.53
2019-05-15T01:55:09.847Z,91.82
2019-05-15T01:57:41.430Z,91.03
2019-05-15T02:00:13.054Z,91.06
2019-05-15T02:02:44.590Z,90.89
2019-05-15T02:05:18.695Z,91.21
2019-05-15T02:07:49.624Z,91.23
2019-05-15T02:10:21.151Z,90.58
2019-05-15T02:12:52.538Z,90.74
2019-05-15T02:15:24.146Z,91.04
2019-05-15T02:17:55.385Z,91.28
2019-05-15T02:20:29.049Z,91.65
2019-05-15T02:23:00.350Z,91.63
2019-05-15T02:25:32.222Z,90.70
2019-05-15T02:28:04.198Z,90.00
2019-05-15T02:30:39.650Z,89.72
2019-05-15T02:33:10.789Z,90.27
2019-05-15T02:35:42.169Z,89.00
2019-05-15T02:38:15.530Z,88.68
2019-05-15T02:40:49.355Z,88.31
2019-05-15T02:43:20.190Z,88.70
2019-05-15T02:45:51.647Z,89.13
2019-05-15T02:48:22.933Z,88.92
2019-05-15T02:50:54.631Z,89.18
2019-05-15T02:53:29.610Z,89.28
2019-05-15T02:56:00.304Z,89.65
2019-05-15T02:58:31.966Z,89.87
2019-05-15T03:01:03.596Z,89.00
2019-05-15T03:03:34.984Z,89.41
2019-05-15T03:06:09.654Z,89.86
2019-05-15T03:08:40.228Z,90.22
2019-05-15T03:11:12.024Z,90.47
2019-05-15T03:13:43.681Z,90.99
2019-05-15T03:16:15.474Z,90.75
2019-05-15T03:18:50.185Z,90.71
2019-05-15T03:21:19.891Z,91.00
2019-05-15T03:23:51.491Z,90.79
2019-05-15T03:26:23.060Z,91.36
2019-05-15T03:28:54.291Z,91.99
2019-05-15T03:31:43.549Z,92.15
2019-05-15T03:34:03.084Z,92.24
2019-05-15T03:36:32.412Z,92.59
2019-05-15T03:39:05.064Z,92.79
2019-05-15T03:41:39.289Z,92.92
2019-05-15T03:44:09.838Z,92.87
2019-05-15T03:46:41.359Z,92.82
2019-05-15T03:49:12.936Z,93.08
2019-05-15T03:51:45.850Z,92.78
2019-05-15T03:54:18.973Z,92.54
2019-05-15T03:56:50.779Z,92.36
2019-05-15T03:59:23.258Z,92.70
2019-05-15T04:01:54.813Z,92.04
2019-05-15T04:04:29.468Z,92.12
2019-05-15T04:06:59.748Z,92.25
2019-05-15T04:09:31.124Z,91.35
2019-05-15T04:12:02.265Z,91.00
2019-05-15T04:14:33.830Z,90.90
2019-05-15T04:17:08.865Z,90.69
2019-05-15T04:19:39.397Z,90.39
2019-05-15T04:22:10.965Z,90.79
2019-05-15T04:24:43.278Z,90.61
2019-05-15T04:27:14.932Z,90.99
2019-05-15T04:29:49.171Z,90.85
2019-05-15T04:32:20.163Z,90.59
2019-05-15T04:34:51.741Z,90.29
2019-05-15T04:37:23.338Z,90.16
2019-05-15T04:39:55.943Z,90.10
2019-05-15T04:42:29.880Z,89.78
2019-05-15T04:45:00.246Z,90.07
2019-05-15T04:47:32.584Z,89.34
2019-05-15T04:50:03.678Z,89.34
2019-05-15T04:52:34.994Z,89.15
2019-05-15T04:55:09.684Z,88.95
2019-05-15T04:57:40.408Z,88.82
2019-05-15T05:00:12.796Z,88.51
2019-05-15T05:02:44.037Z,89.14
2019-05-15T05:05:15.389Z,88.63
2019-05-15T05:07:49.103Z,88.56
2019-05-15T05:10:19.724Z,88.03
2019-05-15T05:12:51.169Z,87.21
2019-05-15T05:15:22.777Z,87.35
2019-05-15T05:17:53.982Z,86.98
2019-05-15T05:20:25.515Z,86.58
2019-05-15T05:22:58.359Z,85.64
2019-05-15T05:25:29.963Z,85.45
2019-05-15T05:28:01.367Z,84.88
2019-05-15T05:30:32.710Z,85.54
2019-05-15T05:33:04.626Z,86.02
2019-05-15T05:35:38.755Z,84.74
2019-05-15T05:38:10.233Z,85.06
2019-05-15T05:40:42.149Z,85.50
2019-05-15T05:43:13.697Z,84.67
2019-05-15T05:45:45.184Z,84.45
2019-05-15T05:48:18.699Z,83.86
2019-05-15T05:50:50.256Z,83.85
2019-05-15T05:53:21.875Z,83.49
2019-05-15T05:55:53.711Z,83.21
2019-05-15T05:58:25.479Z,83.37
2019-05-15T06:00:58.606Z,83.19
2019-05-15T06:03:31.248Z,82.91
2019-05-15T06:06:02.667Z,83.83
2019-05-15T06:08:34.212Z,84.42
2019-05-15T06:11:05.367Z,83.21
2019-05-15T06:13:38.232Z,81.84
2019-05-15T06:16:10.955Z,82.20
2019-05-15T06:18:42.286Z,82.62
2019-05-15T06:21:13.855Z,81.90
2019-05-15T06:23:48.417Z,81.79
2019-05-15T06:26:19.594Z,81.80
2019-05-15T06:28:50.955Z,80.11
2019-05-15T06:31:22.002Z,80.51
2019-05-15T06:33:53.651Z,80.75
2019-05-15T06:36:25.197Z,81.42
2019-05-15T06:38:58.601Z,81.31
2019-05-15T06:41:29.627Z,81.63
2019-05-15T06:44:00.885Z,81.34
2019-05-15T06:46:31.948Z,81.00
2019-05-15T06:49:03.421Z,81.34
2019-05-15T06:51:34.814Z,80.82
2019-05-15T06:54:08.551Z,80.50
2019-05-15T06:56:39.554Z,79.66
2019-05-15T06:59:10.463Z,80.46
2019-05-15T07:01:41.493Z,80.22
2019-05-15T07:04:12.603Z,78.46
2019-05-15T07:06:43.649Z,78.95
2019-05-15T07:09:15.100Z,76.74
2019-05-15T07:11:48.320Z,76.86
2019-05-15T07:14:19.267Z,74.77
2019-05-15T07:16:50.273Z,73.79
2019-05-15T07:19:21.138Z,74.20
2019-05-15T07:21:52.763Z,74.08
2019-05-15T07:24:23.786Z,73.95
2019-05-15T07:26:54.686Z,74.20
2019-05-15T07:29:26.154Z,75.64
2019-05-15T07:31:58.558Z,74.59
2019-05-15T07:34:29.677Z,75.73
2019-05-15T07:37:00.958Z,76.59
2019-05-15T07:39:32.551Z,77.38
2019-05-15T07:42:03.849Z,77.31
2019-05-15T07:44:35.165Z,78.46
2019-05-15T07:47:08.738Z,78.10
2019-05-15T07:49:39.406Z,79.02
2019-05-15T07:52:10.454Z,77.87
2019-05-15T07:54:41.468Z,79.56
2019-05-15T07:57:12.525Z,78.43
2019-05-15T07:59:43.483Z,78.20
2019-05-15T08:02:14.582Z,77.01
2019-05-15T08:04:48.126Z,76.35
2019-05-15T08:07:18.854Z,75.57
2019-05-15T08:09:49.957Z,75.53
2019-05-15T08:12:21.065Z,74.15
2019-05-15T08:14:52.050Z,74.57
2019-05-15T08:17:23.100Z,75.02
2019-05-15T08:19:54.376Z,74.60
2019-05-15T08:22:28.327Z,74.74
2019-05-15T08:24:59.330Z,75.34
2019-05-15T08:27:30.345Z,75.33
2019-05-15T08:30:01.781Z,75.98
2019-05-15T08:32:33.328Z,77.19
2019-05-15T08:35:05.161Z,77.40
2019-05-15T08:37:38.450Z,78.23
2019-05-15T08:40:10.250Z,76.94
2019-05-15T08:42:42.162Z,77.17
2019-05-15T08:45:13.289Z,77.39
2019-05-15T08:47:44.492Z,77.88
2019-05-15T08:50:18.249Z,76.95
2019-05-15T08:52:49.198Z,76.77
2019-05-15T08:55:20.336Z,75.68
2019-05-15T08:57:55.602Z,75.91
2019-05-15T09:00:24.380Z,76.22
2019-05-15T09:02:58.162Z,75.91
2019-05-15T09:05:30.384Z,75.58
2019-05-15T09:08:02.448Z,74.58
2019-05-15T09:10:38.293Z,73.66
2019-05-15T09:13:09.560Z,73.66
2019-05-15T09:15:40.778Z,72.94
2019-05-15T09:18:15.956Z,72.68
2019-05-15T09:20:44.879Z,69.17
2019-05-15T09:23:19.084Z,69.17
2019-05-15T09:25:49.867Z,70.28
2019-05-15T09:28:20.933Z,69.11
2019-05-15T09:30:52.005Z,70.79
2019-05-15T09:33:24.256Z,70.79
2019-05-15T09:35:55.293Z,69.56
2019-05-15T09:38:28.673Z,69.56
2019-05-15T09:40:59.309Z,70.69
2019-05-15T09:43:30.397Z,70.59
2019-05-15T09:46:01.573Z,71.86
2019-05-15T09:48:32.946Z,71.86
2019-05-15T09:51:04.018Z,71.72
2019-05-15T09:53:35.436Z,72.45
2019-05-15T09:56:08.089Z,71.67
2019-05-15T09:58:39.302Z,71.67
2019-05-15T10:01:10.379Z,69.37
2019-05-15T10:03:44.511Z,69.28
2019-05-15T10:06:15.250Z,69.55
2019-05-15T10:08:49.058Z,68.75
2019-05-15T10:11:20.038Z,67.04
2019-05-15T10:13:51.550Z,67.19
2019-05-15T10:16:22.802Z,67.98
2019-05-15T10:18:54.027Z,67.73
2019-05-15T10:21:29.632Z,67.73
2019-05-15T10:23:59.180Z,71.02
2019-05-15T10:26:30.318Z,69.75
2019-05-15T10:29:01.593Z,68.99
2019-05-15T10:31:32.963Z,69.04
2019-05-15T10:34:04.142Z,70.28
2019-05-15T10:36:35.309Z,70.28
2019-05-15T10:39:08.461Z,68.95
2019-05-15T10:41:39.670Z,68.95
2019-05-15T10:44:10.704Z,70.70
2019-05-15T10:46:41.742Z,71.08
2019-05-15T10:49:12.759Z,71.31
2019-05-15T10:51:45.012Z,71.31
2019-05-15T10:54:15.922Z,72.84
2019-05-15T10:56:47.175Z,73.61
2019-05-15T10:59:18.443Z,72.84
2019-05-15T11:01:49.465Z,71.89
2019-05-15T11:04:20.585Z,72.40
2019-05-15T11:06:51.520Z,72.40
2019-05-15T11:09:22.580Z,74.01
2019-05-15T11:11:53.777Z,73.84
2019-05-15T11:14:24.833Z,73.84
2019-05-15T11:16:58.806Z,73.41
2019-05-15T11:19:35.490Z,72.08
2019-05-15T11:22:01.330Z,72.08
2019-05-15T11:24:32.605Z,72.00
2019-05-15T11:27:03.851Z,71.78
2019-05-15T11:29:34.728Z,70.59
2019-05-15T11:32:05.999Z,70.87
2019-05-15T11:34:38.294Z,70.87
2019-05-15T11:37:09.834Z,70.45
2019-05-15T11:39:46.044Z,72.76
2019-05-15T11:42:14.842Z,75.65
2019-05-15T11:44:48.406Z,77.08
2019-05-15T11:47:19.579Z,77.08
2019-05-15T11:49:50.879Z,78.15
2019-05-15T11:52:22.222Z,78.30
2019-05-15T11:54:53.391Z,79.26
2019-05-15T11:57:37.319Z,80.29
2019-05-15T11:59:59.506Z,77.67
2019-05-15T12:02:29.986Z,78.22
2019-05-15T12:05:02.065Z,76.63
2019-05-15T12:07:33.017Z,80.15
2019-05-15T12:10:04.209Z,79.08
2019-05-15T12:12:35.354Z,79.08
2019-05-15T12:15:08.011Z,77.78
2019-05-15T12:17:39.378Z,78.19
2019-05-15T12:20:10.992Z,78.19
2019-05-15T12:22:42.143Z,78.74
2019-05-15T12:25:13.611Z,78.74
2019-05-15T12:27:44.664Z,79.76
2019-05-15T12:30:16.028Z,78.36
2019-05-15T12:35:20.718Z,77.23
2019-05-15T12:37:51.538Z,77.23
2019-05-15T12:39:23.745Z,77.10
2019-05-15T13:00:46.250Z,86.28
2019-05-15T13:03:18.246Z,86.91
2019-05-15T13:05:49.361Z,87.58
2019-05-15T13:08:20.342Z,88.25
2019-05-15T13:10:51.409Z,89.11
2019-05-15T13:13:22.543Z,89.20
2019-05-15T13:15:53.696Z,90.08
2019-05-15T13:18:24.828Z,90.26
2019-05-15T13:20:56.902Z,90.31
2019-05-15T13:23:28.828Z,90.80
2019-05-15T13:26:00.029Z,90.64
2019-05-15T13:28:31.578Z,90.69
2019-05-15T13:31:02.894Z,91.57
2019-05-15T13:33:34.219Z,91.45
2019-05-15T13:36:05.440Z,91.29
2019-05-15T13:38:38.162Z,90.78
2019-05-15T13:41:09.630Z,91.20
2019-05-15T13:43:40.820Z,91.41
2019-05-15T13:46:12.082Z,91.70
2019-05-15T13:48:43.206Z,92.15
2019-05-15T13:51:14.350Z,91.84
2019-05-15T13:53:45.358Z,92.23
2019-05-15T13:56:18.221Z,92.49
2019-05-15T13:58:49.424Z,92.88
2019-05-15T14:01:20.776Z,93.14
2019-05-15T14:03:53.289Z,93.16
2019-05-15T14:06:24.504Z,93.07
2019-05-15T14:08:57.963Z,93.09
2019-05-15T14:11:31.066Z,93.05
2019-05-15T14:14:01.320Z,93.20
2019-05-15T14:16:32.407Z,93.52
2019-05-15T14:19:04.702Z,93.06
2019-05-15T14:21:37.944Z,93.03
2019-05-15T14:24:09.174Z,93.38
2019-05-15T14:26:40.132Z,91.78
2019-05-15T14:29:11.000Z,91.93
2019-05-15T14:31:43.120Z,91.45
2019-05-15T14:34:14.358Z,90.44
2019-05-15T14:36:45.201Z,90.50
2019-05-15T14:39:16.452Z,89.78
2019-05-15T14:41:49.193Z,88.22
2019-05-15T14:44:21.643Z,89.19
2019-05-15T14:46:52.921Z,88.54
2019-05-15T14:49:24.083Z,86.62
2019-05-15T14:52:07.683Z,85.44
2019-05-15T14:54:28.997Z,83.03
2019-05-15T14:57:00.163Z,83.39
2019-05-15T14:59:31.137Z,82.86
2019-05-15T15:02:03.275Z,81.88
2019-05-15T15:04:34.315Z,80.71
2019-05-15T15:07:05.444Z,81.15
2019-05-15T15:09:36.427Z,81.43
2019-05-15T15:12:08.267Z,81.43
2019-05-15T15:14:40.214Z,81.60
2019-05-15T15:17:11.089Z,80.21
2019-05-15T15:19:42.208Z,81.24
2019-05-15T15:22:13.461Z,81.24
2019-05-15T15:24:44.571Z,82.79
2019-05-15T15:27:15.938Z,82.79
2019-05-15T15:29:48.309Z,81.67
2019-05-15T15:32:19.724Z,80.62
2019-05-15T15:34:50.741Z,79.42
2019-05-15T15:37:22.277Z,79.42
2019-05-15T15:39:53.666Z,79.09
2019-05-15T15:42:24.963Z,79.09
2019-05-15T15:44:58.082Z,78.25
2019-05-15T15:47:29.127Z,76.82
2019-05-15T15:50:00.328Z,76.39
2019-05-15T15:52:31.713Z,76.39
2019-05-15T15:55:02.850Z,76.42
2019-05-15T15:57:34.291Z,76.47
2019-05-15T16:00:05.688Z,76.67
2019-05-15T16:02:40.653Z,77.68
2019-05-15T16:05:10.531Z,77.68
2019-05-15T16:07:43.535Z,76.89
2019-05-15T16:10:15.173Z,77.60
2019-05-15T16:12:46.453Z,77.60
2019-05-15T16:15:18.202Z,77.86
2019-05-15T16:17:49.641Z,77.86
2019-05-15T16:20:20.769Z,78.43
2019-05-15T16:22:52.465Z,79.37
2019-05-15T16:25:23.652Z,79.07
2019-05-15T16:27:55.137Z,79.14
2019-05-15T16:30:28.183Z,79.54
2019-05-15T16:32:59.748Z,79.40
2019-05-15T16:35:31.154Z,81.32
2019-05-15T16:38:02.200Z,82.14
2019-05-15T16:40:33.273Z,81.63
2019-05-15T16:43:04.334Z,81.63
2019-05-15T16:45:38.574Z,80.84
2019-05-15T16:48:09.470Z,81.53
2019-05-15T16:50:40.669Z,81.53
2019-05-15T16:53:11.948Z,80.98
2019-05-15T16:55:43.241Z,81.38
2019-05-15T16:58:14.874Z,81.38
2019-05-15T17:00:45.962Z,81.77
2019-05-15T17:03:18.449Z,81.90
2019-05-15T17:05:49.820Z,82.43
2019-05-15T17:08:22.066Z,83.04
2019-05-15T17:10:53.470Z,83.90
2019-05-15T17:13:24.641Z,84.00
2019-05-15T17:15:58.266Z,84.21
2019-05-15T17:18:29.403Z,85.53
2019-05-15T17:21:00.796Z,84.36
2019-05-15T17:23:31.984Z,84.12
2019-05-15T17:26:03.286Z,82.87
2019-05-15T17:28:34.425Z,83.08
2019-05-15T17:31:05.456Z,83.92
2019-05-15T17:33:38.084Z,84.42
2019-05-15T17:36:09.526Z,84.40
2019-05-15T17:38:40.841Z,84.62
2019-05-15T17:41:12.665Z,84.69
2019-05-15T17:43:43.651Z,83.94
2019-05-15T17:46:14.990Z,84.67
2019-05-15T17:48:54.062Z,84.28
2019-05-15T17:51:19.594Z,84.02
2019-05-15T17:53:51.107Z,84.31
2019-05-15T17:56:21.977Z,84.81
2019-05-15T17:58:54.237Z,84.98
2019-05-15T18:01:28.048Z,84.42
2019-05-15T18:03:59.425Z,84.39
2019-05-15T18:06:30.649Z,84.50
2019-05-15T18:09:01.523Z,84.84
2019-05-15T18:11:34.087Z,83.97
2019-05-15T18:14:05.329Z,81.67
2019-05-15T18:16:38.140Z,80.09
2019-05-15T18:19:09.100Z,79.10
2019-05-15T18:21:41.596Z,79.43
2019-05-15T18:24:12.563Z,80.51
2019-05-15T18:26:43.409Z,80.68
2019-05-15T18:29:14.724Z,80.86
2019-05-15T18:31:47.899Z,80.68
2019-05-15T18:34:19.098Z,80.83
2019-05-15T18:36:50.533Z,80.07
2019-05-15T18:39:21.642Z,81.24
2019-05-15T18:41:52.931Z,80.24
2019-05-15T18:44:24.136Z,79.97
2019-05-15T18:46:55.046Z,79.63
2019-05-15T18:49:28.378Z,80.66
2019-05-15T18:51:59.085Z,81.21
2019-05-15T18:54:30.278Z,81.29
2019-05-15T18:57:01.299Z,80.91
2019-05-15T18:59:32.644Z,80.87
2019-05-15T19:02:04.093Z,79.34
2019-05-15T19:04:34.948Z,80.08
2019-05-15T19:07:08.701Z,80.41
2019-05-15T19:09:39.238Z,79.84
2019-05-15T19:12:10.705Z,79.60
2019-05-15T19:14:41.813Z,79.67
2019-05-15T19:17:12.869Z,79.72
2019-05-15T19:19:43.975Z,79.22
2019-05-15T19:22:15.188Z,79.83
2019-05-15T19:24:46.592Z,80.69
2019-05-15T19:27:19.349Z,80.28
2019-05-15T19:29:50.453Z,79.85
2019-05-15T19:32:21.627Z,80.02
2019-05-15T19:34:53.046Z,79.93
2019-05-15T19:37:24.225Z,79.99
2019-05-15T19:39:55.339Z,81.69
2019-05-15T19:42:28.557Z,81.04
2019-05-15T19:44:59.401Z,82.02
2019-05-15T19:47:31.722Z,81.23
2019-05-15T19:50:03.074Z,81.79
2019-05-15T19:52:35.575Z,81.98
2019-05-15T19:55:08.875Z,81.99
2019-05-15T19:57:40.278Z,82.66
2019-05-15T20:00:12.679Z,82.75
2019-05-15T20:02:44.396Z,82.68
2019-05-15T20:05:18.179Z,82.44
2019-05-15T20:07:49.304Z,82.22
2019-05-15T20:10:20.603Z,82.85
2019-05-15T20:12:51.744Z,83.15
2019-05-15T20:15:22.948Z,83.88
2019-05-15T20:17:54.217Z,84.56
2019-05-15T20:20:28.029Z,84.39
2019-05-15T20:23:00.131Z,84.66
2019-05-15T20:25:31.561Z,85.30
2019-05-15T20:28:03.021Z,85.55
2019-05-15T20:30:34.825Z,85.35
2019-05-15T20:33:08.894Z,85.77
2019-05-15T20:35:40.234Z,86.09
2019-05-15T20:38:11.453Z,85.80
2019-05-15T20:40:43.704Z,86.05
2019-05-15T20:43:14.930Z,85.76
2019-05-15T20:45:48.291Z,85.45
2019-05-15T20:48:18.843Z,85.58
2019-05-15T20:50:50.254Z,85.71
2019-05-15T20:53:21.452Z,86.32
2019-05-15T20:55:52.704Z,86.03
2019-05-15T20:58:23.711Z,85.92
2019-05-15T21:00:54.757Z,86.30
2019-05-15T21:03:25.920Z,87.22
2019-05-15T21:05:57.747Z,86.80
2019-05-15T21:08:30.117Z,87.11
2019-05-15T21:11:01.478Z,87.11
2019-05-15T21:13:32.510Z,87.25
2019-05-15T21:16:03.504Z,87.77
2019-05-15T21:18:34.325Z,87.19
2019-05-15T21:21:10.199Z,86.97
2019-05-15T21:23:38.799Z,86.97
2019-05-15T21:26:11.098Z,87.00
2019-05-15T21:28:42.428Z,86.99
2019-05-15T21:31:13.868Z,86.86
2019-05-15T21:33:45.102Z,87.43
2019-05-15T21:36:16.299Z,87.00
2019-05-15T21:38:48.035Z,87.05
2019-05-15T21:41:19.448Z,86.69
2019-05-15T21:43:50.965Z,87.34
2019-05-15T21:46:22.827Z,87.55
2019-05-15T21:48:54.936Z,87.37
2019-05-15T21:51:28.114Z,87.06
2019-05-15T21:54:01.243Z,87.36
2019-05-15T21:56:32.076Z,87.71
2019-05-15T21:59:03.479Z,87.82
2019-05-15T22:01:34.915Z,88.33
2019-05-15T22:04:06.519Z,88.64
2019-05-15T22:06:38.463Z,88.51
2019-05-15T22:09:12.252Z,88.69
2019-05-15T22:11:43.774Z,88.81
2019-05-15T22:14:15.159Z,88.47
2019-05-15T22:16:46.831Z,88.28
2019-05-15T22:19:20.439Z,87.53
2019-05-15T22:21:51.392Z,87.67
2019-05-15T22:24:22.944Z,88.04
2019-05-15T22:26:54.574Z,88.06
2019-05-15T22:29:28.633Z,88.36
2019-05-15T22:31:59.629Z,88.45
2019-05-15T22:34:30.932Z,88.43
2019-05-15T22:37:02.182Z,88.12
2019-05-15T22:39:33.431Z,88.61
2019-05-15T22:42:04.843Z,88.57
2019-05-15T22:44:38.502Z,88.71
2019-05-15T22:47:10.170Z,88.54
2019-05-15T22:49:41.597Z,88.06
2019-05-15T22:52:13.172Z,88.11
2019-05-15T22:54:44.808Z,87.80
2019-05-15T22:57:16.463Z,87.80
2019-05-15T22:59:48.767Z,88.45
2019-05-15T23:02:19.980Z,87.94
2019-05-15T23:04:51.678Z,87.60
2019-05-15T23:07:22.957Z,87.32
2019-05-15T23:09:54.559Z,87.70
2019-05-15T23:12:26.036Z,87.87
2019-05-15T23:14:57.936Z,88.05
2019-05-15T23:17:29.704Z,88.37
2019-05-15T23:20:01.360Z,88.28
2019-05-15T23:22:33.084Z,88.72
2019-05-15T23:25:05.025Z,88.93
2019-05-15T23:27:38.170Z,88.70
2019-05-15T23:30:10.170Z,88.75
2019-05-15T23:32:41.653Z,88.79
2019-05-15T23:35:13.255Z,89.26
2019-05-15T23:37:44.747Z,89.48
2019-05-15T23:40:17.989Z,89.77
2019-05-15T23:42:50.166Z,89.39
2019-05-15T23:45:21.826Z,88.91
2019-05-15T23:47:53.359Z,89.28
2019-05-15T23:50:24.947Z,89.37
2019-05-15T23:52:58.395Z,88.98
2019-05-15T23:55:29.706Z,88.69
2019-05-15T23:58:01.545Z,88.70
